Terminal Aerodrome Forecast
Issued by NWS Spokane, WA

Home | Current Version | Previous Version | Text Only | Print | Product List | Glossary On
Versions: 1 2 3 4 5 6 7 8 9 10 11 12 13 14 15 16 17 18 19 20 21
000
FTUS46 KOTX 210621 AAA
TAFGEG
TAF AMD
KGEG 210621Z 2106/2206 19005KT 3SM BR SCT002 BKN015
      TEMPO 2106/2110 1/2SM FG VV001
     FM211000 10005KT 3SM BR BCFG SCT005 BKN200
     FM211800 08006KT 5SM -RA BR BKN009 OVC050
     FM220200 15009KT 6SM -RA OVC016=

USA.gov is the U.S. government's official web portal to all federal, state and local government web resources and services.